Time;durP1;ratioP1;P1;durP2;ratioP2;P2;SDS_P1;SDS_P2;PMS_P1;PMS_P2;Temp;Humidity;BMP_temperature;BMP_pressure;BME280_temperature;BME280_humidity;BME280_pressure;Samples;Min_cycle;Max_cycle;Signal;HPM_P1;HPM_P2
2021/03/27 00:01:48;;;;;;;0.60;0.60;;;8.00;99.90;;;;;;6085900;23;20187;-80
2021/03/27 00:04:18;;;;;;;0.60;0.60;;;8.00;99.90;;;;;;6086190;23;20619;-80
2021/03/27 00:06:47;;;;;;;0.60;0.60;;;8.00;99.90;;;;;;6087004;23;20217;-80
2021/03/27 00:09:26;;;;;;;0.60;0.60;;;8.00;99.90;;;;;;6086665;23;20187;-80
2021/03/27 00:11:57;;;;;;;0.60;0.60;;;8.00;99.90;;;;;;6086011;23;20163;-80
2021/03/27 00:14:35;;;;;;;0.55;0.55;;;8.00;99.90;;;;;;6085785;23;20175;-81
2021/03/27 00:17:05;;;;;;;0.60;0.60;;;7.90;99.90;;;;;;6085846;23;20167;-80
2021/03/27 00:19:36;;;;;;;0.60;0.60;;;7.90;99.90;;;;;;6086198;23;20190;-80
2021/03/27 00:22:07;;;;;;;0.60;0.60;;;7.80;99.90;;;;;;6086094;23;20171;-80
2021/03/27 00:25:07;;;;;;;0.60;0.60;;;7.80;99.90;;;;;;6085918;23;20167;-81
2021/03/27 00:27:38;;;;;;;0.60;0.60;;;7.70;99.90;;;;;;6086629;23;20454;-80
2021/03/27 00:30:08;;;;;;;0.60;0.60;;;7.70;99.90;;;;;;6086037;23;20167;-80
2021/03/27 00:32:39;;;;;;;0.50;0.50;;;7.70;99.90;;;;;;6086060;23;20190;-80
2021/03/27 00:35:09;;;;;;;0.60;0.60;;;7.60;99.90;;;;;;6085217;23;20635;-82
2021/03/27 00:37:38;;;;;;;0.60;0.60;;;7.60;99.90;;;;;;6087125;23;20163;-81
2021/03/27 00:40:09;;;;;;;0.60;0.60;;;7.60;99.90;;;;;;6086322;23;20183;-82
2021/03/27 00:42:39;;;;;;;0.60;0.60;;;7.60;99.90;;;;;;6086494;23;20167;-82
2021/03/27 00:45:11;;;;;;;0.60;0.60;;;7.50;99.90;;;;;;6086462;23;20180;-82
2021/03/27 00:47:40;;;;;;;0.50;0.50;;;7.50;99.90;;;;;;6086027;23;20563;-81
2021/03/27 00:50:10;;;;;;;0.60;0.60;;;7.50;99.90;;;;;;6087327;23;20510;-83
2021/03/27 00:52:40;;;;;;;0.60;0.60;;;7.50;99.90;;;;;;6087229;23;20178;-81
2021/03/27 00:55:13;;;;;;;0.60;0.60;;;7.50;99.90;;;;;;6086539;23;20274;-81
2021/03/27 00:57:42;;;;;;;0.60;0.60;;;7.50;99.90;;;;;;6087019;23;20214;-81
2021/03/27 01:00:15;;;;;;;0.57;0.57;;;7.40;99.90;;;;;;6087831;23;20183;-81
2021/03/27 01:02:46;;;;;;;0.50;0.50;;;7.40;99.90;;;;;;6087661;23;20168;-81
2021/03/27 01:05:17;;;;;;;0.60;0.60;;;8.30;99.90;;;;;;6088609;23;20162;-82
2021/03/27 01:07:45;;;;;;;0.60;0.60;;;7.40;99.90;;;;;;6089948;23;20261;-81
2021/03/27 01:10:22;;;;;;;0.60;0.60;;;7.40;99.90;;;;;;6088556;23;20175;-81
2021/03/27 01:12:50;;;;;;;0.50;0.50;;;7.30;99.90;;;;;;6088798;23;20170;-81
2021/03/27 01:15:20;;;;;;;0.60;0.60;;;7.20;99.90;;;;;;6087237;23;20183;-81
2021/03/27 01:17:50;;;;;;;0.60;0.60;;;7.30;99.90;;;;;;6087756;23;20542;-81
2021/03/27 01:20:21;;;;;;;0.55;0.55;;;7.20;99.90;;;;;;6086897;23;20635;-80
2021/03/27 01:22:49;;;;;;;0.60;0.60;;;7.20;99.90;;;;;;6087011;23;20506;-81
2021/03/27 01:25:22;;;;;;;0.60;0.60;;;7.20;99.90;;;;;;6087022;23;20179;-81
2021/03/27 01:27:54;;;;;;;0.60;0.60;;;7.20;99.90;;;;;;6086131;23;20187;-81
2021/03/27 01:30:31;;;;;;;0.60;0.60;;;7.20;99.90;;;;;;6086440;23;20552;-81
2021/03/27 01:33:02;;;;;;;0.60;0.60;;;7.20;99.90;;;;;;6087031;23;20163;-81
2021/03/27 01:35:33;;;;;;;0.60;0.60;;;7.20;99.90;;;;;;6086627;23;20207;-81
2021/03/27 01:38:08;;;;;;;0.60;0.60;;;7.20;99.90;;;;;;6087357;23;20174;-80
2021/03/27 01:40:45;;;;;;;0.60;0.60;;;7.10;99.90;;;;;;6087431;23;20168;-81
2021/03/27 01:43:22;;;;;;;0.60;0.60;;;7.10;99.90;;;;;;6086455;23;20167;-81
2021/03/27 01:46:10;;;;;;;0.60;0.60;;;7.10;99.90;;;;;;6086239;23;20164;-81
2021/03/27 01:48:46;;;;;;;0.60;0.60;;;7.20;99.90;;;;;;6086252;23;20441;-81
2021/03/27 01:51:24;;;;;;;0.60;0.60;;;7.20;99.90;;;;;;6086285;23;20198;-81
2021/03/27 01:53:56;;;;;;;0.60;0.60;;;7.20;99.90;;;;;;6086405;23;20479;-80
2021/03/27 01:56:35;;;;;;;0.60;0.60;;;7.20;99.90;;;;;;6086208;23;20688;-80
2021/03/27 01:59:05;;;;;;;0.60;0.60;;;7.20;99.90;;;;;;6088082;23;20233;-80
2021/03/27 02:01:36;;;;;;;0.60;0.60;;;7.20;99.90;;;;;;6087769;23;20163;-81
2021/03/27 02:04:06;;;;;;;0.55;0.55;;;7.20;99.90;;;;;;6086814;23;20182;-80
2021/03/27 02:06:38;;;;;;;0.52;0.52;;;7.20;99.90;;;;;;6086289;23;20214;-80
2021/03/27 02:09:09;;;;;;;0.60;0.60;;;7.20;99.90;;;;;;6086063;23;20194;-80
2021/03/27 02:11:59;;;;;;;0.60;0.60;;;7.20;99.90;;;;;;6086654;23;20303;-79
2021/03/27 02:14:40;;;;;;;0.60;0.60;;;7.20;99.90;;;;;;6085807;23;20183;-81
2021/03/27 02:17:12;;;;;;;0.60;0.60;;;7.20;99.90;;;;;;6086593;23;20255;-80
2021/03/27 02:20:14;;;;;;;0.60;0.60;;;7.20;99.90;;;;;;6086499;23;20712;-80
2021/03/27 02:22:47;;;;;;;0.60;0.60;;;7.20;99.90;;;;;;6086369;23;20197;-80
2021/03/27 02:25:34;;;;;;;0.60;0.60;;;7.20;99.90;;;;;;6086739;23;20223;-81
2021/03/27 02:28:21;;;;;;;0.60;0.60;;;7.20;99.90;;;;;;6086722;23;20199;-80
2021/03/27 02:30:50;;;;;;;0.60;0.60;;;7.20;99.90;;;;;;6086760;23;20170;-80
2021/03/27 02:33:33;;;;;;;0.60;0.60;;;7.20;99.90;;;;;;6086909;23;20194;-81
2021/03/27 02:36:31;;;;;;;0.60;0.60;;;7.20;99.90;;;;;;6086447;23;20210;-81
2021/03/27 02:39:05;;;;;;;0.60;0.60;;;7.20;99.90;;;;;;6085345;23;20179;-81
2021/03/27 02:41:52;;;;;;;0.60;0.60;;;7.20;99.90;;;;;;6087660;23;20169;-81
2021/03/27 02:44:25;;;;;;;0.60;0.60;;;7.10;99.90;;;;;;6086666;23;20229;-81
2021/03/27 02:46:57;;;;;;;0.60;0.60;;;7.10;99.90;;;;;;6087071;23;20183;-81
2021/03/27 02:49:32;;;;;;;0.60;0.60;;;7.10;99.90;;;;;;6087187;23;20479;-81
2021/03/27 02:52:12;;;;;;;0.60;0.60;;;7.10;99.90;;;;;;6088642;23;20206;-81
2021/03/27 02:54:54;;;;;;;0.60;0.60;;;7.10;99.90;;;;;;6087308;23;20456;-81
2021/03/27 02:57:28;;;;;;;0.60;0.60;;;7.10;99.90;;;;;;6087514;23;20198;-81
2021/03/27 03:00:00;;;;;;;0.60;0.60;;;7.10;99.90;;;;;;6087236;23;20171;-81
2021/03/27 03:02:37;;;;;;;0.60;0.60;;;7.20;99.90;;;;;;6087446;23;20164;-81
2021/03/27 03:05:08;;;;;;;0.57;0.57;;;7.20;99.90;;;;;;6087414;23;20164;-81
2021/03/27 03:07:45;;;;;;;0.60;0.60;;;7.20;99.90;;;;;;6088006;23;20183;-81
2021/03/27 03:10:21;;;;;;;0.60;0.60;;;7.30;99.90;;;;;;6087945;23;20509;-81
2021/03/27 03:12:58;;;;;;;0.55;0.55;;;7.30;99.90;;;;;;6087380;23;20492;-81
2021/03/27 03:15:29;;;;;;;0.60;0.60;;;7.40;99.90;;;;;;6104879;23;20228;-82
2021/03/27 03:18:06;;;;;;;0.60;0.60;;;7.40;99.90;;;;;;6116898;23;20187;-81
2021/03/27 03:20:44;;;;;;;0.60;0.60;;;7.50;99.90;;;;;;6116264;23;20618;-81
2021/03/27 03:23:18;;;;;;;0.60;0.60;;;7.50;99.90;;;;;;6115585;23;20672;-80
2021/03/27 03:25:50;;;;;;;0.60;0.60;;;7.50;99.90;;;;;;6116804;23;20211;-80
2021/03/27 03:28:24;;;;;;;0.60;0.60;;;7.50;99.90;;;;;;6116543;23;20167;-81
2021/03/27 03:31:01;;;;;;;0.60;0.60;;;7.50;99.90;;;;;;6116470;23;20163;-80
2021/03/27 03:34:06;;;;;;;0.60;0.60;;;7.60;99.90;;;;;;6116861;23;20174;-81
2021/03/27 03:36:45;;;;;;;0.60;0.60;;;7.40;99.90;;;;;;6116690;23;20163;-81
2021/03/27 03:39:24;;;;;;;0.60;0.60;;;7.70;99.90;;;;;;6116271;23;20216;-80
2021/03/27 03:41:54;;;;;;;0.60;0.60;;;7.70;99.90;;;;;;6116047;23;20173;-81
2021/03/27 03:44:42;;;;;;;0.60;0.60;;;7.70;99.90;;;;;;6116075;23;20170;-80
2021/03/27 03:47:19;;;;;;;0.60;0.60;;;7.70;99.90;;;;;;6091363;23;20259;-81
2021/03/27 03:49:56;;;;;;;0.60;0.60;;;7.70;99.90;;;;;;6116414;23;20163;-81
2021/03/27 03:52:44;;;;;;;0.60;0.60;;;7.70;99.90;;;;;;6116015;23;20578;-80
2021/03/27 03:55:22;;;;;;;0.60;0.60;;;7.80;99.90;;;;;;6116087;23;20166;-80
2021/03/27 03:58:06;;;;;;;0.60;0.60;;;7.80;99.90;;;;;;6116115;23;20159;-81
2021/03/27 04:00:36;;;;;;;0.60;0.60;;;7.80;99.90;;;;;;6116603;23;20592;-80
2021/03/27 04:03:14;;;;;;;0.60;0.60;;;7.80;99.90;;;;;;6116337;23;20175;-80
2021/03/27 04:05:47;;;;;;;0.60;0.60;;;7.90;99.90;;;;;;6116485;23;20173;-81
2021/03/27 04:08:26;;;;;;;0.60;0.60;;;7.90;99.90;;;;;;6116707;23;20162;-80
2021/03/27 04:11:09;;;;;;;0.60;0.60;;;7.90;99.90;;;;;;6116834;23;20174;-80
2021/03/27 04:13:40;;;;;;;0.60;0.60;;;8.40;99.90;;;;;;6115857;23;20163;-81
2021/03/27 04:16:12;;;;;;;0.60;0.60;;;8.00;99.90;;;;;;6115414;23;20737;-80
2021/03/27 04:18:43;;;;;;;0.50;0.50;;;8.20;99.90;;;;;;6115952;23;20189;-80
2021/03/27 04:21:15;;;;;;;0.60;0.60;;;8.30;99.90;;;;;;6115966;23;20176;-81
2021/03/27 04:23:46;;;;;;;0.60;0.60;;;8.20;99.90;;;;;;6116196;23;20170;-80
2021/03/27 04:26:23;;;;;;;0.60;0.60;;;8.20;99.90;;;;;;6116177;23;20187;-80
2021/03/27 04:29:10;;;;;;;0.50;0.50;;;8.20;99.90;;;;;;6115874;23;20166;-80
2021/03/27 04:31:43;;;;;;;0.60;0.60;;;8.20;99.90;;;;;;6115854;23;20255;-80
2021/03/27 04:34:13;;;;;;;0.60;0.60;;;8.20;99.90;;;;;;6115265;23;20167;-82
2021/03/27 04:36:44;;;;;;;0.55;0.55;;;8.10;99.90;;;;;;6115981;23;20178;-81
2021/03/27 04:39:17;;;;;;;0.60;0.60;;;8.00;99.90;;;;;;6115943;23;20210;-81
2021/03/27 04:41:55;;;;;;;0.60;0.60;;;7.90;99.90;;;;;;6116678;23;20173;-82
2021/03/27 04:44:26;;;;;;;0.50;0.50;;;7.80;99.90;;;;;;6115830;23;20345;-81
2021/03/27 04:46:58;;;;;;;0.60;0.60;;;7.60;99.90;;;;;;6115780;23;20191;-81
2021/03/27 04:49:29;;;;;;;0.55;0.55;;;7.70;99.90;;;;;;6115959;23;20175;-80
2021/03/27 04:52:09;;;;;;;0.60;0.60;;;7.60;99.90;;;;;;6115779;23;20198;-81
2021/03/27 04:54:56;;;;;;;0.60;0.60;;;7.60;99.90;;;;;;6116247;23;20163;-81
2021/03/27 04:57:33;;;;;;;0.57;0.57;;;7.60;99.90;;;;;;6115343;23;20167;-82
2021/03/27 05:00:09;;;;;;;0.60;0.60;;;7.50;99.90;;;;;;6117483;23;20181;-82
2021/03/27 05:02:40;;;;;;;0.60;0.60;;;7.30;99.90;;;;;;6116489;23;20520;-81
2021/03/27 05:05:16;;;;;;;0.60;0.60;;;7.00;99.90;;;;;;6115582;23;20177;-80
2021/03/27 05:07:56;;;;;;;0.60;0.60;;;6.80;99.90;;;;;;6115944;23;20190;-80
2021/03/27 05:10:31;;;;;;;0.60;0.60;;;6.50;99.90;;;;;;6115473;23;20171;-80
2021/03/27 05:13:04;;;;;;;0.60;0.60;;;6.30;99.90;;;;;;6115785;23;20169;-81
2021/03/27 05:15:43;;;;;;;0.60;0.60;;;6.10;99.90;;;;;;6115975;23;20281;-80
2021/03/27 05:18:30;;;;;;;0.60;0.60;;;5.90;99.90;;;;;;6115579;23;20215;-81
2021/03/27 05:21:05;;;;;;;0.60;0.60;;;5.70;99.90;;;;;;6115926;23;20465;-80
2021/03/27 05:23:48;;;;;;;0.60;0.60;;;5.60;99.90;;;;;;6115819;23;20193;-81
2021/03/27 05:26:24;;;;;;;0.60;0.60;;;5.50;99.90;;;;;;6116093;23;20191;-81
2021/03/27 05:29:04;;;;;;;0.60;0.60;;;5.30;99.90;;;;;;6115469;23;20171;-81
2021/03/27 05:31:37;;;;;;;0.52;0.52;;;5.20;99.90;;;;;;6116075;23;20202;-81
2021/03/27 05:34:13;;;;;;;0.50;0.50;;;5.20;99.90;;;;;;6115222;23;20174;-81
2021/03/27 05:37:05;;;;;;;0.60;0.60;;;5.10;99.90;;;;;;6115652;23;20530;-81
2021/03/27 05:39:38;;;;;;;0.60;0.60;;;5.00;99.90;;;;;;6115957;23;20167;-82
2021/03/27 05:42:43;;;;;;;0.60;0.60;;;4.90;99.90;;;;;;6115318;23;20220;-80
2021/03/27 05:45:54;;;;;;;0.50;0.50;;;4.90;99.90;;;;;;6115173;23;20186;-82
2021/03/27 05:49:01;;;;;;;0.60;0.60;;;4.90;99.90;;;;;;6116680;23;20569;-82
2021/03/27 05:52:03;;;;;;;0.60;0.60;;;4.90;99.90;;;;;;6117278;23;20202;-82
2021/03/27 05:55:18;;;;;;;0.60;0.60;;;4.90;99.90;;;;;;6117567;23;20186;-81
2021/03/27 05:58:17;;;;;;;0.60;0.60;;;4.80;99.90;;;;;;6117651;23;20496;-82
2021/03/27 06:00:53;;;;;;;0.55;0.55;;;4.80;99.90;;;;;;6071169;23;20238;-82
2021/03/27 06:03:39;;;;;;;0.60;0.60;;;4.80;99.90;;;;;;6117723;23;20232;-80
2021/03/27 06:06:30;;;;;;;0.57;0.57;;;4.90;99.90;;;;;;6116604;23;20170;-80
2021/03/27 06:09:21;;;;;;;0.50;0.50;;;4.90;99.90;;;;;;6117054;23;20221;-80
2021/03/27 06:11:55;;;;;;;0.52;0.52;;;4.90;99.90;;;;;;6117101;23;20199;-80
2021/03/27 06:14:51;;;;;;;0.60;0.60;;;4.90;99.90;;;;;;6116449;23;20163;-80
2021/03/27 06:17:33;;;;;;;0.50;0.50;;;4.90;99.90;;;;;;6116396;23;20249;-80
2021/03/27 06:20:44;;;;;;;0.50;0.50;;;4.90;99.90;;;;;;6116973;23;20171;-80
2021/03/27 06:23:49;;;;;;;0.50;0.50;;;5.00;99.90;;;;;;6116198;23;20174;-80
2021/03/27 06:27:03;;;;;;;0.60;0.60;;;5.00;99.90;;;;;;6118473;23;20174;-81
2021/03/27 06:29:59;;;;;;;0.60;0.60;;;5.00;99.90;;;;;;6061316;23;20646;-81
2021/03/27 06:33:11;;;;;;;0.50;0.50;;;4.80;99.90;;;;;;6117553;23;20163;-81
2021/03/27 06:35:55;;;;;;;0.60;0.60;;;5.00;99.90;;;;;;6117088;23;20178;-82
2021/03/27 06:39:00;;;;;;;0.50;0.50;;;5.10;99.90;;;;;;6117079;23;20225;-80
2021/03/27 06:41:53;;;;;;;0.50;0.50;;;5.00;99.90;;;;;;6114834;23;20237;-81
2021/03/27 06:44:59;;;;;;;0.60;0.60;;;5.10;99.90;;;;;;6116568;23;20492;-80
2021/03/27 06:48:19;;;;;;;0.50;0.50;;;5.20;99.90;;;;;;6086344;23;20202;-81
2021/03/27 06:51:20;;;;;;;0.50;0.50;;;5.20;99.90;;;;;;6117407;23;20206;-81
2021/03/27 06:54:12;;;;;;;0.50;0.50;;;5.20;99.90;;;;;;6091897;23;20227;-80
2021/03/27 06:56:44;;;;;;;0.60;0.60;;;5.30;99.90;;;;;;6115616;23;20167;-80
2021/03/27 06:59:49;;;;;;;0.60;0.60;;;5.30;99.90;;;;;;6116543;23;20163;-81
2021/03/27 07:02:47;;;;;;;0.50;0.50;;;5.30;99.90;;;;;;6118633;23;20496;-82
2021/03/27 07:06:07;;;;;;;0.55;0.55;;;5.30;99.90;;;;;;6118570;23;20162;-81
2021/03/27 07:09:01;;;;;;;0.50;0.50;;;5.30;99.90;;;;;;6116716;23;20228;-81
2021/03/27 07:11:42;;;;;;;0.50;0.50;;;5.40;99.90;;;;;;6117944;23;20212;-81
2021/03/27 07:14:57;;;;;;;0.50;0.50;;;5.40;99.90;;;;;;6113712;23;20477;-81
2021/03/27 07:17:37;;;;;;;0.50;0.50;;;5.40;99.90;;;;;;6110146;23;20271;-81
2021/03/27 07:20:24;;;;;;;0.50;0.50;;;5.40;99.90;;;;;;6107347;23;20218;-84
2021/03/27 07:23:09;;;;;;;0.60;0.60;;;4.30;99.90;;;;;;6122392;23;20187;-80
2021/03/27 07:25:49;;;;;;;0.50;0.50;;;5.30;99.90;;;;;;6121631;23;20167;-81
2021/03/27 07:28:43;;;;;;;0.60;0.60;;;5.50;99.90;;;;;;6128122;23;20241;-83
2021/03/27 07:31:32;;;;;;;0.50;0.50;;;5.50;99.90;;;;;;6135735;23;20591;-82
2021/03/27 07:34:26;;;;;;;0.50;0.50;;;5.50;99.90;;;;;;6127738;23;20194;-81
2021/03/27 07:37:19;;;;;;;0.50;0.50;;;5.20;99.90;;;;;;6124160;23;20205;-81
2021/03/27 07:40:12;;;;;;;0.60;0.60;;;5.50;99.90;;;;;;6119844;23;20213;-80
2021/03/27 07:42:54;;;;;;;0.50;0.50;;;5.50;99.90;;;;;;6079808;23;20616;-81
2021/03/27 07:45:50;;;;;;;0.60;0.60;;;5.50;99.90;;;;;;6126992;23;20163;-80
2021/03/27 07:48:42;;;;;;;0.60;0.60;;;5.60;99.90;;;;;;6119801;23;20245;-79
2021/03/27 07:51:25;;;;;;;0.60;0.60;;;5.60;99.90;;;;;;6181391;22;20206;-79
2021/03/27 07:54:06;;;;;;;0.50;0.50;;;6.20;99.90;;;;;;6271207;22;20174;-79
2021/03/27 07:56:46;;;;;;;0.50;0.50;;;5.60;99.90;;;;;;6271725;22;20160;-80
2021/03/27 07:59:48;;;;;;;0.57;0.57;;;5.50;99.90;;;;;;6269974;22;20159;-79
2021/03/27 08:02:48;;;;;;;0.52;0.52;;;5.60;99.90;;;;;;6270458;22;20636;-79
2021/03/27 08:05:54;;;;;;;0.50;0.50;;;5.60;99.90;;;;;;6208946;22;20178;-80
2021/03/27 08:08:54;;;;;;;0.50;0.50;;;5.80;99.90;;;;;;6256737;22;20198;-80
2021/03/27 08:11:34;;;;;;;0.60;0.60;;;5.80;99.90;;;;;;6270998;22;20163;-79
2021/03/27 08:14:27;;;;;;;0.55;0.55;;;6.30;99.90;;;;;;6272537;22;20159;-80
2021/03/27 08:17:26;;;;;;;0.60;0.60;;;5.90;99.90;;;;;;6271990;22;20604;-80
2021/03/27 08:20:23;;;;;;;0.50;0.50;;;6.00;99.90;;;;;;6271281;22;20936;-80
2021/03/27 08:23:09;;;;;;;0.60;0.60;;;6.00;99.90;;;;;;6271811;22;20182;-80
2021/03/27 08:25:43;;;;;;;0.50;0.50;;;6.00;99.90;;;;;;6271952;22;20672;-79
2021/03/27 08:28:56;;;;;;;0.50;0.50;;;6.00;99.90;;;;;;6271428;22;20186;-79
2021/03/27 08:31:55;;;;;;;0.55;0.55;;;6.00;99.90;;;;;;6289209;22;20182;-82
2021/03/27 08:35:07;;;;;;;0.60;0.60;;;5.90;99.90;;;;;;6291714;22;20173;-81
2021/03/27 08:37:48;;;;;;;0.60;0.60;;;6.10;99.90;;;;;;6272407;22;20182;-81
2021/03/27 08:40:56;;;;;;;0.50;0.50;;;5.90;99.90;;;;;;6281379;22;20163;-85
2021/03/27 08:43:40;;;;;;;0.60;0.60;;;6.10;99.90;;;;;;6268715;22;20163;-81
2021/03/27 08:46:30;;;;;;;0.60;0.60;;;5.90;99.90;;;;;;6272784;22;20213;-81
2021/03/27 08:49:33;;;;;;;0.60;0.60;;;6.30;99.90;;;;;;6276249;22;20155;-82
2021/03/27 08:52:37;;;;;;;0.60;0.60;;;6.50;99.90;;;;;;6274585;22;20198;-81
2021/03/27 08:55:19;;;;;;;0.55;0.55;;;6.50;99.90;;;;;;6280081;22;20204;-81
2021/03/27 09:03:43;;;;;;;0.57;0.57;;;6.50;99.90;;;;;;6121437;22;20214;31
2021/03/27 09:06:34;;;;;;;0.50;0.50;;;6.30;99.90;;;;;;6109594;23;20189;-87
2021/03/27 09:09:32;;;;;;;0.50;0.50;;;6.30;99.90;;;;;;6108990;23;20175;-84
2021/03/27 09:12:19;;;;;;;0.60;0.60;;;6.40;99.90;;;;;;6119667;23;20237;-82
2021/03/27 09:24:01;;;;;;;0.60;0.60;;;6.80;99.90;;;;;;6130087;23;20277;-86
2021/03/27 09:26:49;;;;;;;0.60;0.60;;;9.60;99.90;;;;;;6138291;23;20178;-84
2021/03/27 09:29:57;;;;;;;0.60;0.60;;;6.80;99.90;;;;;;6139036;23;20162;-85
2021/03/27 09:32:50;;;;;;;0.52;0.52;;;6.80;99.90;;;;;;6093166;23;20240;-82
2021/03/27 09:35:44;;;;;;;0.50;0.50;;;8.60;99.90;;;;;;6134857;23;20170;-84
2021/03/27 09:38:53;;;;;;;0.60;0.60;;;7.50;99.90;;;;;;6118953;23;20174;-86
2021/03/27 09:41:56;;;;;;;0.50;0.50;;;9.50;99.90;;;;;;6120888;23;20546;-91
2021/03/27 09:44:53;;;;;;;0.50;0.50;;;7.00;99.90;;;;;;6119104;23;20715;-85
2021/03/27 09:47:46;;;;;;;0.60;0.60;;;6.70;99.90;;;;;;6118523;23;20214;-85
2021/03/27 09:50:20;;;;;;;0.50;0.50;;;6.70;99.90;;;;;;6119078;23;20233;-86
2021/03/27 09:53:01;;;;;;;0.60;0.60;;;6.70;99.90;;;;;;6119388;23;20169;-85
2021/03/27 09:55:52;;;;;;;0.60;0.60;;;6.60;99.90;;;;;;6120424;23;20170;-85
2021/03/27 09:58:26;;;;;;;0.60;0.60;;;6.80;99.90;;;;;;6118904;23;20159;-85
2021/03/27 10:01:24;;;;;;;0.60;0.60;;;6.70;99.90;;;;;;6119998;23;20186;-85
2021/03/27 10:04:09;;;;;;;0.60;0.60;;;6.90;99.90;;;;;;6119076;23;20281;-84
2021/03/27 10:07:14;;;;;;;0.57;0.57;;;6.90;99.90;;;;;;6119457;23;20273;-84
2021/03/27 10:10:19;;;;;;;0.57;0.57;;;7.10;99.90;;;;;;6126404;23;20151;-82
2021/03/27 10:13:05;;;;;;;0.60;0.60;;;7.20;99.90;;;;;;6053203;23;20190;-84
2021/03/27 10:15:44;;;;;;;0.60;0.60;;;7.60;99.90;;;;;;6131311;23;20182;-88
2021/03/27 10:28:56;;;;;;;;;;;;;;;;;;;;;
2021/03/27 11:08:15;;;;;;;0.60;0.60;;;6.90;99.90;;;;;;6112863;23;20654;-87
2021/03/27 11:11:01;;;;;;;0.50;0.50;;;5.70;99.90;;;;;;6129451;23;20174;-86
2021/03/27 12:06:04;;;;;;;0.50;0.50;;;4.60;99.90;;;;;;6120436;23;20210;-81
2021/03/27 12:08:38;;;;;;;0.60;0.60;;;5.30;99.90;;;;;;6131699;22;20271;-81
2021/03/27 12:11:23;;;;;;;0.50;0.50;;;4.70;99.90;;;;;;6118297;23;20206;-87
2021/03/27 12:37:14;;;;;;;0.60;0.60;;;5.00;99.90;;;;;;6098962;22;20482;-86
2021/03/27 12:39:50;;;;;;;0.60;0.60;;;6.60;99.90;;;;;;6130020;23;20155;-81
2021/03/27 12:42:21;;;;;;;0.50;0.50;;;4.00;99.90;;;;;;6128727;23;20175;-83
2021/03/27 12:45:11;;;;;;;0.50;0.50;;;4.50;99.90;;;;;;6128644;23;20167;-84
2021/03/27 12:47:50;;;;;;;0.57;0.57;;;4.10;99.90;;;;;;6124589;23;20307;-83
2021/03/27 12:50:45;;;;;;;;;;;;;;;;;;;;;
2021/03/27 12:53:50;;;;;;;0.60;0.60;;;4.20;99.90;;;;;;6124243;23;20210;-87
2021/03/27 12:57:07;;;;;;;0.60;0.60;;;3.90;99.90;;;;;;6141245;23;20172;-85
2021/03/27 12:59:53;;;;;;;0.60;0.60;;;6.20;99.90;;;;;;6144842;23;20147;-84
2021/03/27 13:02:34;;;;;;;0.60;0.60;;;3.90;99.90;;;;;;6118949;23;20175;-84
2021/03/27 13:05:05;;;;;;;0.50;0.50;;;4.00;99.90;;;;;;6122680;23;20166;-86
2021/03/27 13:07:46;;;;;;;0.55;0.55;;;4.70;99.90;;;;;;6117861;23;20196;-87
2021/03/27 13:10:49;;;;;;;0.50;0.50;;;5.10;99.90;;;;;;6122256;23;20685;-86
2021/03/27 13:13:23;;;;;;;0.50;0.50;;;7.20;99.90;;;;;;6126234;23;20193;-83
2021/03/27 13:16:02;;;;;;;0.60;0.60;;;3.90;99.90;;;;;;6130254;23;20184;-90
2021/03/27 13:18:54;;;;;;;0.60;0.60;;;6.20;99.90;;;;;;6118332;23;20228;-86
2021/03/27 13:21:43;;;;;;;0.55;0.55;;;4.60;99.90;;;;;;6116640;23;20194;-86
2021/03/27 13:24:16;;;;;;;0.52;0.52;;;6.30;99.90;;;;;;6049369;23;20560;-84
2021/03/27 13:27:00;;;;;;;0.60;0.60;;;4.70;99.90;;;;;;6116755;23;20194;-83
2021/03/27 13:29:40;;;;;;;0.60;0.60;;;6.50;99.90;;;;;;6111003;23;20179;-84
2021/03/27 13:37:25;;;;;;;0.60;0.60;;;5.00;99.90;;;;;;6130374;23;20217;-84
2021/03/27 13:40:01;;;;;;;0.50;0.50;;;5.10;99.90;;;;;;6115812;23;20504;-81
2021/03/27 13:42:39;;;;;;;0.50;0.50;;;4.70;99.90;;;;;;6120623;23;20182;-81
2021/03/27 13:45:25;;;;;;;0.60;0.60;;;5.10;99.90;;;;;;6118190;23;20202;-83
2021/03/27 13:48:02;;;;;;;0.60;0.60;;;5.30;99.90;;;;;;6117406;23;20206;-82
2021/03/27 13:50:44;;;;;;;0.60;0.60;;;5.10;99.90;;;;;;6116472;23;20259;-82
2021/03/27 13:53:18;;;;;;;0.50;0.50;;;5.70;99.90;;;;;;6120578;23;20194;-83
2021/03/27 13:55:57;;;;;;;0.57;0.57;;;5.80;99.90;;;;;;6127910;23;20184;-83
2021/03/27 13:58:38;;;;;;;0.60;0.60;;;6.10;99.90;;;;;;6126918;23;20237;-83
2021/03/27 14:01:12;;;;;;;0.60;0.60;;;6.60;99.90;;;;;;6134802;23;20178;-83
2021/03/27 14:03:55;;;;;;;0.60;0.60;;;6.20;99.90;;;;;;6129029;23;20273;-83
2021/03/27 14:06:30;;;;;;;0.60;0.60;;;7.30;99.90;;;;;;6125645;23;20655;-83
2021/03/27 14:09:21;;;;;;;0.50;0.50;;;8.40;99.90;;;;;;6130604;23;20277;-83
2021/03/27 14:11:57;;;;;;;0.50;0.50;;;5.50;99.90;;;;;;6126428;23;20544;-84
2021/03/27 14:14:30;;;;;;;0.60;0.60;;;7.40;99.90;;;;;;6118554;23;20703;-84
2021/03/27 14:17:30;;;;;;;0.60;0.60;;;6.10;99.90;;;;;;6118732;23;20510;-86
2021/03/27 14:20:18;;;;;;;0.50;0.50;;;6.10;99.90;;;;;;6124685;23;20162;-85
2021/03/27 14:23:16;;;;;;;0.60;0.60;;;6.60;99.90;;;;;;6121294;23;20599;-84
2021/03/27 14:25:51;;;;;;;0.50;0.50;;;6.90;99.90;;;;;;6123456;23;20183;-84
2021/03/27 14:28:24;;;;;;;0.60;0.60;;;7.20;99.90;;;;;;6122809;23;20821;-85
2021/03/27 14:31:10;;;;;;;0.60;0.60;;;7.20;99.90;;;;;;6120252;23;20188;-84
2021/03/27 14:33:50;;;;;;;0.60;0.60;;;7.30;99.90;;;;;;6121007;23;20276;-84
2021/03/27 14:36:20;;;;;;;0.57;0.57;;;7.40;99.90;;;;;;6127095;23;20205;-84
2021/03/27 14:39:12;;;;;;;0.60;0.60;;;7.40;99.90;;;;;;6122307;23;20179;-86
2021/03/27 14:41:55;;;;;;;0.55;0.55;;;7.50;99.90;;;;;;6124822;23;20321;-84
2021/03/27 14:44:30;;;;;;;0.60;0.60;;;7.70;99.90;;;;;;6121638;23;20155;-85
2021/03/27 14:47:17;;;;;;;0.50;0.50;;;7.80;99.90;;;;;;6122421;23;20155;-84
2021/03/27 14:49:52;;;;;;;0.60;0.60;;;7.90;99.90;;;;;;6120905;23;20182;-85
2021/03/27 14:52:26;;;;;;;0.60;0.60;;;8.00;99.90;;;;;;6122422;23;20506;-85
2021/03/27 14:55:18;;;;;;;0.60;0.60;;;8.00;99.90;;;;;;6120632;23;20170;-84
2021/03/27 14:57:53;;;;;;;0.60;0.60;;;7.80;99.90;;;;;;6121362;23;20667;-85
2021/03/27 15:00:43;;;;;;;0.60;0.60;;;7.50;99.90;;;;;;6122870;23;20184;-84
2021/03/27 15:03:15;;;;;;;0.50;0.50;;;7.20;99.90;;;;;;6124973;23;20170;-84
2021/03/27 15:05:47;;;;;;;0.50;0.50;;;7.10;99.90;;;;;;6120248;23;20167;-84
2021/03/27 15:08:28;;;;;;;0.60;0.60;;;6.90;99.90;;;;;;6120692;23;20197;-84
2021/03/27 15:11:03;;;;;;;0.60;0.60;;;6.90;99.90;;;;;;6119963;23;20167;-85
2021/03/27 15:13:45;;;;;;;0.60;0.60;;;6.90;99.90;;;;;;6119237;23;20181;-85
2021/03/27 15:16:28;;;;;;;0.60;0.60;;;6.80;99.90;;;;;;6121619;23;20584;-85
2021/03/27 15:19:03;;;;;;;0.60;0.60;;;5.50;99.90;;;;;;6118844;23;20212;-84
2021/03/27 15:21:46;;;;;;;0.55;0.55;;;5.70;99.90;;;;;;6117934;23;20185;-84
2021/03/27 15:24:28;;;;;;;0.60;0.60;;;5.30;99.90;;;;;;6118054;23;20167;-83
2021/03/27 15:27:16;;;;;;;0.60;0.60;;;5.00;99.90;;;;;;6118212;23;20167;-84
2021/03/27 15:29:56;;;;;;;0.60;0.60;;;4.90;99.90;;;;;;6117558;23;20173;-83
2021/03/27 15:32:33;;;;;;;0.60;0.60;;;4.70;99.90;;;;;;6117603;23;20225;-83
2021/03/27 15:35:19;;;;;;;0.60;0.60;;;4.70;99.90;;;;;;6119339;23;20187;-83
2021/03/27 15:37:54;;;;;;;0.60;0.60;;;4.70;99.90;;;;;;6118151;23;20245;-83
2021/03/27 15:40:24;;;;;;;0.60;0.60;;;4.70;99.90;;;;;;6117540;23;20174;-83
2021/03/27 15:42:53;;;;;;;0.60;0.60;;;4.70;99.90;;;;;;6116364;23;20185;-84
2021/03/27 15:45:46;;;;;;;0.50;0.50;;;4.70;99.90;;;;;;6117870;23;20201;-84
2021/03/27 15:48:16;;;;;;;0.52;0.52;;;5.00;99.90;;;;;;6117813;23;20189;-83
2021/03/27 15:50:53;;;;;;;0.60;0.60;;;5.50;99.90;;;;;;6118977;23;20198;-84
2021/03/27 15:53:25;;;;;;;0.60;0.60;;;5.80;99.90;;;;;;6117469;23;20163;-83
2021/03/27 15:56:18;;;;;;;0.60;0.60;;;6.10;99.90;;;;;;6118116;23;20167;-84
2021/03/27 15:58:48;;;;;;;0.60;0.60;;;6.20;99.90;;;;;;6117753;23;20234;-84
2021/03/27 16:01:17;;;;;;;0.50;0.50;;;6.10;99.90;;;;;;6118279;23;20647;-84
2021/03/27 16:04:04;;;;;;;0.60;0.60;;;6.00;99.90;;;;;;6117808;23;20187;-84
2021/03/27 16:06:39;;;;;;;0.60;0.60;;;5.80;99.90;;;;;;6118131;23;20154;-84
2021/03/27 16:09:14;;;;;;;0.50;0.50;;;5.90;99.90;;;;;;6119233;23;20186;-84
2021/03/27 16:11:48;;;;;;;0.60;0.60;;;6.00;99.90;;;;;;6118916;23;20626;-84
2021/03/27 16:14:22;;;;;;;0.60;0.60;;;6.10;99.90;;;;;;6117254;23;20634;-84
2021/03/27 16:17:03;;;;;;;0.60;0.60;;;6.10;99.90;;;;;;6117815;23;20174;-84
2021/03/27 16:19:43;;;;;;;0.60;0.60;;;6.20;99.90;;;;;;6118430;23;20163;-84
2021/03/27 16:22:42;;;;;;;0.50;0.50;;;6.20;99.90;;;;;;6118343;23;20501;-84
2021/03/27 16:25:28;;;;;;;0.50;0.50;;;6.30;99.90;;;;;;6117856;23;20171;-84
2021/03/27 16:28:08;;;;;;;0.60;0.60;;;6.50;99.90;;;;;;6116577;23;20178;-85
2021/03/27 16:30:50;;;;;;;0.60;0.60;;;6.30;99.90;;;;;;6118402;23;20163;-84
2021/03/27 16:33:24;;;;;;;0.60;0.60;;;6.20;99.90;;;;;;6118211;23;20376;-84
2021/03/27 16:35:59;;;;;;;0.57;0.57;;;6.20;99.90;;;;;;6117309;23;20213;-86
2021/03/27 16:38:46;;;;;;;0.60;0.60;;;6.10;99.90;;;;;;6117266;23;20162;-84
2021/03/27 16:41:17;;;;;;;0.60;0.60;;;5.80;99.90;;;;;;6113227;23;20611;-83
2021/03/27 16:43:49;;;;;;;0.60;0.60;;;5.60;99.90;;;;;;6115908;23;20494;-84